Time;durP1;ratioP1;P1;durP2;ratioP2;P2;SDS_P1;SDS_P2;PMS_P1;PMS_P2;Temp;Humidity;BMP_temperature;BMP_pressure;BME280_temperature;BME280_humidity;BME280_pressure;Samples;Min_cycle;Max_cycle;Signal;HPM_P1;HPM_P2
2021/03/16 00:02:06;;;;;;;11.30;5.62;;;;;;;5.40;63.51;100110.67;1822643;78;21523;-80
2021/03/16 00:04:36;;;;;;;11.08;5.78;;;;;;;5.41;63.54;100103.28;1822546;78;20988;-80
2021/03/16 00:07:20;;;;;;;9.08;5.20;;;;;;;5.42;63.49;100101.05;1820377;78;20924;-80
2021/03/16 00:09:48;;;;;;;18.35;6.70;;;;;;;5.42;63.68;100106.72;1822550;78;20987;-79
2021/03/16 00:12:16;;;;;;;10.95;5.37;;;;;;;5.42;63.64;100101.52;1822584;78;21802;-78
2021/03/16 00:14:44;;;;;;;12.35;6.85;;;;;;;5.43;63.68;100096.72;1822816;78;21007;-79
2021/03/16 00:17:12;;;;;;;11.90;6.70;;;;;;;5.43;63.64;100095.41;1822890;78;20944;-76
2021/03/16 00:19:42;;;;;;;15.55;7.42;;;;;;;5.41;63.72;100096.78;1822782;78;20959;-81
2021/03/16 00:22:10;;;;;;;10.58;6.05;;;;;;;5.39;63.82;100102.05;1822634;78;20948;-77
2021/03/16 00:24:37;;;;;;;14.73;8.30;;;;;;;5.36;63.94;100091.80;1822589;78;21331;-78
2021/03/16 00:27:06;;;;;;;15.18;7.05;;;;;;;5.33;63.94;100088.48;1822788;78;21465;-78
2021/03/16 00:29:34;;;;;;;9.30;5.60;;;;;;;5.31;64.05;100087.25;1823294;78;21516;-80
2021/03/16 00:32:03;;;;;;;11.65;6.80;;;;;;;5.27;64.15;100087.47;1822791;78;21400;-80
2021/03/16 00:34:31;;;;;;;15.05;8.25;;;;;;;5.23;64.24;100073.79;1822702;78;21356;-78
2021/03/16 00:36:59;;;;;;;15.43;6.53;;;;;;;5.24;64.29;100076.76;1822569;78;21373;-76
2021/03/16 00:39:27;;;;;;;13.05;8.05;;;;;;;5.26;64.34;100068.43;1822574;78;21381;-76
2021/03/16 00:41:55;;;;;;;17.55;8.70;;;;;;;5.26;64.42;100065.00;1822550;78;20983;-80
2021/03/16 00:44:25;;;;;;;17.02;9.68;;;;;;;5.24;64.46;100063.76;1822505;78;21007;-79
2021/03/16 00:46:53;;;;;;;16.55;9.98;;;;;;;5.25;64.43;100072.42;1822628;78;20928;-82
2021/03/16 00:49:22;;;;;;;20.80;9.40;;;;;;;5.23;64.50;100068.59;1822603;78;21711;-78
2021/03/16 00:51:52;;;;;;;19.15;8.38;;;;;;;5.22;64.54;100073.39;1822501;78;20933;-79
2021/03/16 00:54:21;;;;;;;10.55;7.58;;;;;;;5.19;64.55;100074.37;1822584;78;20956;-80
2021/03/16 00:56:49;;;;;;;14.50;7.85;;;;;;;5.16;64.66;100071.93;1822732;78;21349;-84
2021/03/16 00:59:17;;;;;;;11.10;7.83;;;;;;;5.13;64.78;100069.92;1822632;78;20956;-81
2021/03/16 01:01:45;;;;;;;11.45;6.87;;;;;;;5.10;64.84;100079.17;1822792;78;21428;-84
2021/03/16 01:04:14;;;;;;;12.98;5.90;;;;;;;5.06;64.97;100069.36;1822660;78;21066;-82
2021/03/16 01:06:42;;;;;;;8.73;6.00;;;;;;;5.06;65.03;100057.66;1822804;78;20936;-78
2021/03/16 01:09:11;;;;;;;12.23;6.80;;;;;;;5.07;65.20;100063.27;1824022;78;20932;-83
2021/03/16 01:11:39;;;;;;;13.35;8.25;;;;;;;5.06;65.25;100058.13;1825157;78;20999;-81
2021/03/16 01:14:08;;;;;;;10.50;6.60;;;;;;;5.05;65.40;100070.75;1829796;78;22232;-79
2021/03/16 01:16:36;;;;;;;8.65;5.75;;;;;;;5.03;65.35;100073.41;1832320;78;20975;-81
2021/03/16 01:19:04;;;;;;;13.08;7.12;;;;;;;5.02;65.38;100061.31;1831977;78;21026;-79
2021/03/16 01:21:32;;;;;;;10.85;7.33;;;;;;;5.01;65.33;100062.70;1831849;78;20947;-79
2021/03/16 01:24:00;;;;;;;19.48;8.73;;;;;;;4.99;65.37;100075.76;1831897;78;20948;-82
2021/03/16 01:26:28;;;;;;;14.38;7.92;;;;;;;4.95;65.47;100074.20;1831994;78;21171;-77
2021/03/16 01:28:56;;;;;;;13.83;7.22;;;;;;;4.88;65.70;100071.51;1831787;78;21433;-80
2021/03/16 01:31:24;;;;;;;14.63;7.28;;;;;;;4.85;65.70;100067.77;1831796;78;21058;-80
2021/03/16 01:33:52;;;;;;;14.13;6.72;;;;;;;4.83;65.78;100070.42;1831892;78;20916;-81
2021/03/16 01:36:20;;;;;;;9.23;6.42;;;;;;;4.78;66.04;100074.98;1831836;78;20900;-80
2021/03/16 01:38:48;;;;;;;13.62;7.87;;;;;;;4.74;66.17;100066.94;1831858;78;21810;-84
2021/03/16 01:41:16;;;;;;;12.35;7.95;;;;;;;4.68;66.34;100060.72;1831924;78;21003;-85
2021/03/16 01:43:45;;;;;;;13.58;8.68;;;;;;;4.62;66.44;100069.61;1831743;78;21003;-79
2021/03/16 01:46:14;;;;;;;12.60;8.40;;;;;;;4.55;66.65;100059.95;1831890;78;20892;-82
2021/03/16 01:48:43;;;;;;;14.75;8.85;;;;;;;4.51;66.90;100069.23;1831835;78;20955;-82
2021/03/16 01:51:11;;;;;;;9.85;6.92;;;;;;;4.45;67.05;100071.66;1831941;78;22677;-83
2021/03/16 01:53:41;;;;;;;14.18;6.85;;;;;;;4.45;67.13;100070.37;1831735;78;20952;-79
2021/03/16 01:56:11;;;;;;;13.68;8.20;;;;;;;4.45;67.18;100070.83;1829169;78;20959;-77
2021/03/16 01:58:59;;;;;;;14.38;8.75;;;;;;;4.42;67.17;100066.59;1808457;78;21015;-79
2021/03/16 02:01:46;;;;;;;19.10;8.25;;;;;;;4.42;67.24;100073.53;1809001;78;21022;-76
2021/03/16 02:04:33;;;;;;;13.78;10.03;;;;;;;4.39;67.26;100070.63;1831829;78;21867;-77
2021/03/16 02:07:31;;;;;;;16.73;10.03;;;;;;;4.36;67.34;100070.30;1831709;78;20955;-80
2021/03/16 02:10:42;;;;;;;15.20;10.72;;;;;;;4.32;67.50;100078.30;1831763;78;21003;-80
2021/03/16 02:13:58;;;;;;;15.60;9.88;;;;;;;4.25;67.51;100076.88;1831669;78;21485;-77
2021/03/16 02:16:59;;;;;;;15.93;9.25;;;;;;;4.19;67.67;100076.67;1831902;78;21034;-78
2021/03/16 02:20:12;;;;;;;11.80;7.22;;;;;;;4.17;67.88;100090.63;1831845;78;22534;-80
2021/03/16 02:22:59;;;;;;;14.68;8.98;;;;;;;4.15;67.87;100084.19;1831689;78;20955;-76
2021/03/16 02:26:15;;;;;;;11.73;7.12;;;;;;;4.13;67.91;100079.05;1831658;78;21034;-75
2021/03/16 02:29:09;;;;;;;13.08;6.70;;;;;;;4.17;67.90;100078.94;1831789;78;20935;-75
2021/03/16 02:31:59;;;;;;;17.60;9.15;;;;;;;4.19;67.90;100075.83;1832031;78;21010;-75
2021/03/16 02:34:52;;;;;;;13.93;8.15;;;;;;;4.18;67.86;100067.21;1831679;78;22276;-77
2021/03/16 02:37:39;;;;;;;14.73;8.78;;;;;;;4.15;67.80;100072.52;1831666;78;20999;-76
2021/03/16 02:40:26;;;;;;;19.62;8.75;;;;;;;4.14;67.84;100073.44;1831693;78;21011;-76
2021/03/16 02:43:12;;;;;;;12.58;7.35;;;;;;;4.10;67.84;100072.70;1831699;78;21527;-77
2021/03/16 02:45:59;;;;;;;15.72;7.83;;;;;;;4.12;67.83;100073.48;1831712;78;20920;-76
2021/03/16 02:48:47;;;;;;;11.80;6.53;;;;;;;4.14;67.84;100070.84;1831796;78;21126;-75
2021/03/16 02:51:37;;;;;;;13.32;6.75;;;;;;;4.12;67.88;100063.57;1831754;78;21595;-76
2021/03/16 02:54:24;;;;;;;13.22;6.83;;;;;;;4.12;67.90;100073.95;1831642;78;21062;-78
2021/03/16 02:57:12;;;;;;;21.42;6.87;;;;;;;4.12;67.87;100073.95;1831654;78;20904;-83
2021/03/16 03:00:01;;;;;;;13.40;6.97;;;;;;;4.10;67.92;100074.47;1831920;78;20947;-76
2021/03/16 03:02:47;;;;;;;15.65;9.13;;;;;;;4.03;67.89;100069.16;1831840;78;21802;-77
2021/03/16 03:05:34;;;;;;;17.65;7.90;;;;;;;4.01;68.05;100077.45;1831802;78;21078;-75
2021/03/16 03:08:21;;;;;;;14.03;7.10;;;;;;;3.96;68.04;100067.27;1832039;78;21492;-75
2021/03/16 03:11:07;;;;;;;13.10;6.58;;;;;;;4.00;68.03;100083.06;1831801;78;20980;-77
2021/03/16 03:13:54;;;;;;;11.43;6.17;;;;;;;4.02;67.98;100080.42;1806202;78;21059;-79
2021/03/16 03:16:40;;;;;;;15.60;6.47;;;;;;;4.03;67.98;100081.66;1822689;78;21552;-78
2021/03/16 03:19:28;;;;;;;13.68;7.03;;;;;;;4.01;68.08;100074.86;1822525;78;21003;-77
2021/03/16 03:22:32;;;;;;;13.10;7.10;;;;;;;4.00;68.02;100076.58;1822585;78;21027;-77
2021/03/16 03:25:34;;;;;;;15.25;9.28;;;;;;;4.05;68.06;100089.39;1917165;73;22629;-84
2021/03/16 03:28:24;;;;;;;16.52;8.93;;;;;;;3.98;68.04;100086.64;1887140;76;20874;-79
2021/03/16 03:31:10;;;;;;;15.85;10.00;;;;;;;3.89;68.27;100077.05;1887004;74;21172;-78
2021/03/16 03:33:56;;;;;;;13.40;10.43;;;;;;;3.81;68.29;100070.49;1887010;75;20925;-79
2021/03/16 03:36:43;;;;;;;14.65;8.18;;;;;;;3.77;68.45;100068.47;1887174;76;21036;-80
2021/03/16 03:39:32;;;;;;;11.85;5.70;;;;;;;3.78;68.46;100075.35;1887264;74;21020;-78
2021/03/16 03:42:20;;;;;;;10.48;5.70;;;;;;;3.77;68.61;100072.35;1888236;74;21449;-77
2021/03/16 03:45:08;;;;;;;12.63;6.83;;;;;;;3.73;68.85;100070.78;1887505;74;22092;-80
2021/03/16 03:47:54;;;;;;;14.25;7.22;;;;;;;3.67;68.98;100071.06;1887109;74;21343;-81
2021/03/16 03:50:41;;;;;;;17.92;8.50;;;;;;;3.62;69.14;100073.80;1887009;75;21032;-80
2021/03/16 03:53:28;;;;;;;15.72;7.87;;;;;;;3.56;69.24;100073.20;1887063;74;20898;-80
2021/03/16 03:56:16;;;;;;;14.60;6.53;;;;;;;3.47;69.51;100072.69;1887041;76;20917;-80
2021/03/16 03:59:04;;;;;;;15.98;7.83;;;;;;;3.41;69.72;100074.22;1886980;74;21176;-82
2021/03/16 04:01:51;;;;;;;25.75;7.55;;;;;;;3.39;69.92;100072.59;1886925;74;21002;-80
2021/03/16 04:04:39;;;;;;;16.10;7.37;;;;;;;3.37;69.94;100084.31;1887091;76;21319;-86
2021/03/16 04:07:27;;;;;;;17.37;6.65;;;;;;;3.33;70.24;100087.92;1886990;74;20928;-83
2021/03/16 04:10:15;;;;;;;19.92;6.33;;;;;;;3.32;70.42;100095.31;1859342;76;21519;-79
2021/03/16 04:13:04;;;;;;;13.93;6.15;;;;;;;3.30;70.41;100088.05;1886962;74;21761;-81
2021/03/16 04:15:51;;;;;;;15.43;7.33;;;;;;;3.28;70.49;100093.28;1887103;74;20906;-78
2021/03/16 04:18:39;;;;;;;17.32;6.53;;;;;;;3.26;70.51;100098.97;1858677;75;20949;-78
2021/03/16 04:21:25;;;;;;;13.05;6.50;;;;;;;3.26;70.53;100118.41;1887081;76;21330;-80
2021/03/16 04:24:11;;;;;;;18.32;7.35;;;;;;;3.27;70.60;100113.63;1887329;75;21597;-81
2021/03/16 04:26:57;;;;;;;20.70;7.50;;;;;;;3.29;70.43;100104.48;1887082;74;21794;-78
2021/03/16 04:29:43;;;;;;;16.82;8.98;;;;;;;3.29;70.54;100121.33;1887343;76;21426;-78
2021/03/16 04:32:30;;;;;;;26.25;11.40;;;;;;;3.29;70.49;100133.86;1887767;76;20996;-79
2021/03/16 04:35:16;;;;;;;20.85;12.90;;;;;;;3.34;70.42;100117.30;1886582;74;20917;-80
2021/03/16 04:38:03;;;;;;;23.73;12.53;;;;;;;3.38;70.27;100135.68;1886390;74;21008;-81
2021/03/16 04:40:49;;;;;;;23.98;14.20;;;;;;;3.37;70.18;100127.07;1886281;74;21465;-79
2021/03/16 04:43:41;;;;;;;23.40;12.28;;;;;;;3.30;70.27;100114.80;1886180;74;20890;-79
2021/03/16 04:46:27;;;;;;;28.67;10.93;;;;;;;3.30;70.36;100119.98;1886376;76;20937;-84
2021/03/16 04:49:14;;;;;;;21.60;9.73;;;;;;;3.35;70.24;100127.58;1886296;74;20925;-76
2021/03/16 04:52:01;;;;;;;24.77;9.43;;;;;;;3.34;70.19;100134.14;1886719;74;20973;-82
2021/03/16 04:54:47;;;;;;;29.92;14.30;;;;;;;3.34;70.30;100127.66;1886220;74;21438;-80
2021/03/16 04:57:34;;;;;;;31.37;16.05;;;;;;;3.34;70.37;100124.61;1886118;74;20925;-81
2021/03/16 05:00:21;;;;;;;24.07;15.60;;;;;;;3.36;70.40;100127.12;1886279;74;21016;-81
2021/03/16 05:03:07;;;;;;;33.50;18.15;;;;;;;3.42;70.28;100125.59;1886196;74;21107;-82
2021/03/16 05:05:54;;;;;;;35.05;16.50;;;;;;;3.44;70.18;100135.00;1886290;74;20932;-80
2021/03/16 05:08:41;;;;;;;34.53;14.95;;;;;;;3.44;70.16;100131.11;1886555;76;21218;-81
2021/03/16 05:11:28;;;;;;;40.50;13.70;;;;;;;3.44;70.09;100132.41;1886727;74;20917;-79
2021/03/16 05:14:14;;;;;;;34.08;12.70;;;;;;;3.43;70.17;100120.82;1886275;74;21454;-79
2021/03/16 05:17:01;;;;;;;16.48;8.95;;;;;;;3.36;70.32;100117.63;1886256;74;20937;-81
2021/03/16 05:19:48;;;;;;;23.50;7.60;;;;;;;3.35;70.58;100132.77;1886316;74;20913;-81
2021/03/16 05:22:34;;;;;;;33.38;7.55;;;;;;;3.40;70.57;100113.14;1886254;76;21229;-83
2021/03/16 05:25:20;;;;;;;16.70;6.95;;;;;;;3.48;70.41;100130.55;1899597;74;20912;-81
2021/03/16 05:28:07;;;;;;;21.68;7.03;;;;;;;3.54;70.23;100131.62;1902934;74;21315;-83
2021/03/16 05:30:53;;;;;;;24.32;8.13;;;;;;;3.62;70.09;100140.38;1902850;74;20980;-84
2021/03/16 05:33:39;;;;;;;26.57;7.87;;;;;;;3.67;69.87;100126.80;1903028;74;20983;-81
2021/03/16 05:36:27;;;;;;;37.58;8.20;;;;;;;3.64;69.93;100116.53;1902848;74;21342;-82
2021/03/16 05:39:13;;;;;;;14.80;6.70;;;;;;;3.67;70.00;100127.64;1902886;74;21425;-83
2021/03/16 05:42:00;;;;;;;25.82;9.53;;;;;;;3.77;69.81;100147.56;1902855;74;21023;-79
2021/03/16 05:44:46;;;;;;;28.83;11.10;;;;;;;3.85;69.51;100131.71;1877785;75;20940;-82
2021/03/16 05:47:33;;;;;;;33.18;9.65;;;;;;;3.86;69.41;100139.87;1902857;74;20885;-84
2021/03/16 05:50:19;;;;;;;22.32;7.30;;;;;;;3.87;69.40;100137.22;1902912;74;21340;-80
2021/03/16 05:53:06;;;;;;;25.77;7.55;;;;;;;3.92;69.20;100139.63;1902702;74;20916;-79
2021/03/16 05:55:54;;;;;;;25.55;7.55;;;;;;;4.00;69.10;100127.17;1877838;74;21039;-82
2021/03/16 05:58:43;;;;;;;25.50;8.33;;;;;;;4.07;68.77;100132.52;1903400;74;20972;-83
2021/03/16 06:01:30;;;;;;;37.95;11.10;;;;;;;4.11;68.61;100134.09;1903080;74;21405;-82
2021/03/16 06:04:17;;;;;;;35.90;13.83;;;;;;;4.22;68.59;100132.33;1878802;74;21527;-83
2021/03/16 06:07:04;;;;;;;44.42;14.50;;;;;;;4.33;68.29;100132.72;1903738;75;20968;-86
2021/03/16 06:09:52;;;;;;;26.02;9.53;;;;;;;4.47;67.69;100115.70;1903708;74;21011;-87
2021/03/16 06:12:41;;;;;;;36.28;11.22;;;;;;;4.61;67.51;100128.13;1903856;74;20992;-87
2021/03/16 06:15:28;;;;;;;24.77;8.60;;;;;;;4.69;66.98;100126.88;1903421;74;20920;-87
2021/03/16 06:18:26;;;;;;;33.70;9.90;;;;;;;4.74;66.65;100123.62;1903488;74;22131;-87
2021/03/16 06:21:19;;;;;;;33.23;8.10;;;;;;;4.78;66.78;100132.97;1903850;75;21394;-89
2021/03/16 06:24:07;;;;;;;32.48;8.10;;;;;;;4.86;66.39;100134.38;1903310;74;21044;-86
2021/03/16 06:26:54;;;;;;;25.60;7.72;;;;;;;4.88;66.25;100134.69;1878291;74;20997;-90
2021/03/16 06:29:41;;;;;;;29.40;8.35;;;;;;;4.87;66.11;100140.81;1903797;74;20924;-92
2021/03/16 06:32:35;;;;;;;29.72;12.40;;;;;;;4.80;66.14;100139.84;1904791;74;21336;-85
2021/03/16 06:35:23;;;;;;;35.88;14.30;;;;;;;4.72;66.33;100141.02;1905146;74;20932;-87
2021/03/16 06:38:12;;;;;;;38.65;19.45;;;;;;;4.68;66.45;100140.77;1904857;74;20964;-86
2021/03/16 06:41:17;;;;;;;32.53;19.73;;;;;;;4.68;66.73;100132.97;1903743;74;21346;-90
2021/03/16 06:44:04;;;;;;;32.00;16.60;;;;;;;4.72;66.70;100130.63;1903859;74;20941;-85
2021/03/16 06:47:00;;;;;;;41.00;15.43;;;;;;;4.83;66.46;100120.23;1903524;74;21396;-85
2021/03/16 06:49:47;;;;;;;36.05;17.92;;;;;;;4.96;66.36;100118.31;1903734;74;20936;-91
2021/03/16 06:52:35;;;;;;;50.52;23.42;;;;;;;5.08;65.94;100134.27;1903871;74;20935;-89
2021/03/16 06:55:22;;;;;;;53.05;23.30;;;;;;;5.10;65.38;100122.89;1903841;74;21381;-90
2021/03/16 06:58:09;;;;;;;56.37;26.45;;;;;;;5.08;65.14;100113.48;1903599;74;20940;-86
2021/03/16 07:01:13;;;;;;;50.80;24.05;;;;;;;5.14;65.16;100107.55;1903627;74;21354;-89
2021/03/16 07:04:23;;;;;;;51.23;26.23;;;;;;;5.26;64.99;100103.98;1903292;74;21007;-89
2021/03/16 07:07:10;;;;;;;55.75;30.85;;;;;;;5.40;64.69;100101.14;1903418;74;21011;-89
2021/03/16 07:09:57;;;;;;;63.90;32.33;;;;;;;5.74;63.96;100094.33;1903601;74;20861;-86
2021/03/16 07:12:45;;;;;;;66.12;29.37;;;;;;;6.25;62.48;100087.95;1879028;74;20984;-86
2021/03/16 07:15:32;;;;;;;65.85;29.90;;;;;;;6.80;61.37;100082.93;1903731;74;21130;-87
2021/03/16 07:18:21;;;;;;;70.17;28.10;;;;;;;7.31;59.52;100091.47;1903203;74;20992;-87
2021/03/16 07:21:27;;;;;;;49.77;23.25;;;;;;;7.62;58.23;100082.77;1903323;74;21350;-89
2021/03/16 07:24:15;;;;;;;41.35;21.73;;;;;;;7.64;57.13;100086.14;1901710;74;20924;-85
2021/03/16 07:27:04;;;;;;;40.92;22.58;;;;;;;7.44;57.33;100076.82;1887400;74;20992;-85
2021/03/16 07:29:54;;;;;;;60.45;20.40;;;;;;;7.19;58.21;100080.42;1888733;74;21350;-86
2021/03/16 07:32:40;;;;;;;46.90;20.05;;;;;;;7.06;58.34;100078.47;1860924;76;20984;-86
2021/03/16 07:35:28;;;;;;;46.10;24.18;;;;;;;6.98;58.60;100087.18;1887970;75;20925;-89
2021/03/16 07:38:14;;;;;;;45.92;23.55;;;;;;;7.12;58.80;100073.86;1889036;74;20949;-85
2021/03/16 07:41:03;;;;;;;45.43;21.62;;;;;;;7.40;57.97;100083.60;1860812;76;20992;-89
2021/03/16 07:44:02;;;;;;;32.60;20.77;;;;;;;7.69;57.03;100089.80;1888281;74;21179;-89
2021/03/16 07:47:02;;;;;;;40.23;19.90;;;;;;;7.78;56.24;100080.16;1846768;77;20986;-86
2021/03/16 07:49:55;;;;;;;43.92;19.82;;;;;;;7.91;56.05;100072.91;1845867;77;21053;-80
2021/03/16 07:52:45;;;;;;;39.10;17.05;;;;;;;8.25;55.19;100062.19;1845572;77;21759;-81
2021/03/16 07:55:33;;;;;;;32.20;14.98;;;;;;;8.68;54.50;100066.16;1846415;77;20974;-84
2021/03/16 07:58:26;;;;;;;33.60;12.85;;;;;;;9.20;53.13;100073.84;1847498;77;21640;-80
2021/03/16 08:01:14;;;;;;;17.70;11.28;;;;;;;9.71;52.04;100077.15;1847592;76;20985;-78
2021/03/16 08:04:09;;;;;;;37.45;12.05;;;;;;;10.12;50.09;100060.49;1846932;76;20982;-80
2021/03/16 08:06:59;;;;;;;;;;;;;;;10.22;49.79;100055.46;1848424;77;20934;-81
2021/03/16 08:09:47;;;;;;;23.85;12.47;;;;;;;10.15;50.05;100061.11;1845877;76;20523;-76
2021/03/16 08:12:34;;;;;;;25.72;12.23;;;;;;;10.06;49.79;100053.87;1845695;77;21169;-81
2021/03/16 08:15:21;;;;;;;33.25;16.95;;;;;;;9.96;50.07;100055.45;1845709;77;20990;-81
2021/03/16 08:18:13;;;;;;;25.72;13.88;;;;;;;10.11;49.83;100058.32;1845405;76;21040;-79
2021/03/16 08:21:09;;;;;;;32.58;15.25;;;;;;;10.51;49.35;100054.33;1775967;79;22763;-76
2021/03/16 08:24:05;;;;;;;22.05;14.33;;;;;;;10.81;48.78;100057.58;1751089;80;20947;-82
2021/03/16 08:26:53;;;;;;;22.85;13.95;;;;;;;11.23;47.34;100044.51;1750684;82;21194;-78
2021/03/16 08:29:50;;;;;;;35.23;15.03;;;;;;;11.56;47.05;100048.23;1749985;80;21008;-82
2021/03/16 08:32:37;;;;;;;25.35;14.07;;;;;;;11.81;46.11;100043.34;1749755;82;20955;-82
2021/03/16 08:35:24;;;;;;;25.32;15.65;;;;;;;11.90;45.71;100049.25;1749871;80;21030;-85
2021/03/16 08:38:29;;;;;;;25.02;13.53;;;;;;;11.96;44.87;100040.92;1749969;82;21038;-81
2021/03/16 08:41:18;;;;;;;32.53;15.28;;;;;;;12.02;44.96;100049.63;1890231;76;23216;-82
2021/03/16 08:44:05;;;;;;;29.07;15.53;;;;;;;11.97;45.25;100025.50;1861176;77;20879;-84
2021/03/16 08:46:53;;;;;;;31.00;18.05;;;;;;;12.13;44.79;100046.20;1861042;77;21796;-82
2021/03/16 08:49:42;;;;;;;40.98;18.27;;;;;;;12.22;44.42;100035.47;1861136;77;20965;-86
2021/03/16 08:52:30;;;;;;;30.37;18.20;;;;;;;12.25;44.47;100036.56;1861231;77;20934;-84
2021/03/16 08:55:27;;;;;;;31.52;17.30;;;;;;;12.37;44.30;100025.09;1861290;77;20978;-80
2021/03/16 08:58:15;;;;;;;34.00;18.98;;;;;;;12.49;43.76;100017.20;1861225;77;20919;-82
2021/03/16 09:01:02;;;;;;;29.77;13.83;;;;;;;12.36;44.02;100015.54;1861153;77;21632;-83
2021/03/16 09:03:51;;;;;;;33.30;17.37;;;;;;;12.38;44.36;100011.45;1861114;77;20974;-83
2021/03/16 09:06:41;;;;;;;29.98;13.10;;;;;;;12.48;43.99;100016.37;1835193;77;20946;-82
2021/03/16 09:09:31;;;;;;;32.78;14.18;;;;;;;12.67;43.43;100014.44;1861156;77;21609;-86
2021/03/16 09:12:26;;;;;;;31.68;16.15;;;;;;;13.08;43.12;99995.03;1861308;77;21363;-82
2021/03/16 09:15:27;;;;;;;72.65;32.85;;;;;;;13.08;43.12;99995.03;1861232;77;21346;-83
2021/03/16 09:18:14;;;;;;;25.70;12.73;;;;;;;13.20;42.75;100010.65;1861014;77;20949;-81
2021/03/16 09:21:06;;;;;;;26.77;12.73;;;;;;;13.27;42.05;100003.09;1861070;77;21387;-83
2021/03/16 09:24:00;;;;;;;28.92;14.55;;;;;;;13.64;41.74;100018.07;1861023;77;21335;-81
2021/03/16 09:27:02;;;;;;;24.82;13.20;;;;;;;13.64;41.74;100018.07;1861627;77;21017;-82
2021/03/16 09:29:49;;;;;;;26.52;14.80;;;;;;;13.74;41.38;99985.22;1861434;77;21190;-84
2021/03/16 09:32:36;;;;;;;27.93;16.05;;;;;;;13.87;41.41;99984.55;1861153;77;20938;-84
2021/03/16 09:35:23;;;;;;;41.80;19.35;;;;;;;13.91;41.28;99979.84;1861175;77;20930;-85
2021/03/16 09:38:09;;;;;;;32.10;18.23;;;;;;;13.84;41.64;99977.38;1861081;77;20930;-79
2021/03/16 09:40:57;;;;;;;38.90;19.02;;;;;;;13.96;41.24;99984.72;1861141;76;20981;-78
2021/03/16 09:43:36;;;;;;;;;;;;;;;14.03;41.11;99999.08;1863680;77;21632;-85
2021/03/16 09:46:12;;;;;;;46.50;24.40;;;;;;;13.97;41.55;99970.10;1861398;77;20477;-86
2021/03/16 09:48:48;;;;;;;41.60;23.07;;;;;;;13.97;41.55;99970.10;1861852;77;20918;-83
2021/03/16 09:51:28;;;;;;;31.50;21.42;;;;;;;14.19;40.07;99966.47;1862326;77;21017;-82
2021/03/16 09:53:58;;;;;;;31.52;19.77;;;;;;;14.19;40.07;99966.47;1861690;77;20929;-81
2021/03/16 09:56:27;;;;;;;36.73;18.35;;;;;;;14.02;40.46;99963.12;1861228;77;21362;-85
2021/03/16 09:59:01;;;;;;;24.80;18.70;;;;;;;13.82;41.11;99966.12;1861089;77;20974;-84
2021/03/16 10:01:42;;;;;;;26.95;16.67;;;;;;;13.82;41.11;99966.12;1860749;77;20946;-82
2021/03/16 10:04:13;;;;;;;30.27;18.67;;;;;;;13.82;40.72;99963.00;1860403;77;20974;-88
2021/03/16 10:06:42;;;;;;;31.55;16.48;;;;;;;13.77;41.28;99951.19;1860510;77;20941;-83
2021/03/16 10:09:17;;;;;;;32.28;16.00;;;;;;;13.81;41.35;99959.19;1860659;77;21376;-85
2021/03/16 10:11:45;;;;;;;23.22;15.70;;;;;;;13.86;41.31;99960.95;1860494;77;20946;-84
2021/03/16 10:15:32;;;;;;;40.52;18.10;;;;;;;14.09;40.93;99949.76;1777250;79;22781;-83
2021/03/16 10:18:07;;;;;;;50.12;24.00;;;;;;;14.25;40.42;99971.23;1749797;81;20991;-82
2021/03/16 10:20:39;;;;;;;;;;;;;;;14.41;40.32;99958.05;1752819;81;21353;-84
2021/03/16 10:23:14;;;;;;;45.52;22.17;;;;;;;14.63;39.86;99957.87;1749808;82;20239;-84
2021/03/16 10:25:55;;;;;;;34.10;19.35;;;;;;;14.70;39.78;99947.11;1747143;82;20919;-85
2021/03/16 10:28:35;;;;;;;33.55;18.40;;;;;;;14.73;39.81;99942.54;1749959;80;20915;-83
2021/03/16 10:31:19;;;;;;;29.90;18.15;;;;;;;14.79;39.58;99936.23;1749947;82;20943;-85
2021/03/16 10:33:55;;;;;;;34.25;19.87;;;;;;;14.86;39.68;99945.27;1750535;82;21373;-86
2021/03/16 10:36:24;;;;;;;45.95;22.50;;;;;;;14.93;39.92;99949.02;1721133;82;20931;-84
2021/03/16 10:38:52;;;;;;;36.63;20.77;;;;;;;15.28;39.56;99953.45;1749919;80;20939;-89
2021/03/16 10:41:22;;;;;;;43.30;22.87;;;;;;;15.62;38.20;99954.33;1750690;82;21389;-85
2021/03/16 10:43:50;;;;;;;35.50;19.67;;;;;;;15.62;38.57;99942.44;1750884;80;21452;-88
2021/03/16 10:46:18;;;;;;;39.55;20.88;;;;;;;15.64;37.99;99951.06;1750060;82;21381;-89
2021/03/16 10:48:47;;;;;;;37.33;20.43;;;;;;;15.57;38.38;99945.50;1750067;82;20951;-88
2021/03/16 10:51:15;;;;;;;38.38;19.25;;;;;;;15.42;38.24;99930.56;1721200;82;21507;-84
2021/03/16 10:53:44;;;;;;;40.52;21.52;;;;;;;15.07;38.86;99928.01;1749791;82;20988;-83
2021/03/16 10:56:13;;;;;;;46.95;22.35;;;;;;;14.94;39.24;99928.77;1750307;82;21149;-83
2021/03/16 10:58:41;;;;;;;32.10;18.92;;;;;;;14.87;39.31;99938.17;1750563;82;21924;-85
2021/03/16 11:01:12;;;;;;;35.10;18.42;;;;;;;14.65;39.28;99931.32;1750564;82;21090;-80
2021/03/16 11:03:40;;;;;;;41.60;17.55;;;;;;;14.20;39.66;99946.20;1750186;80;21014;-82
2021/03/16 11:06:09;;;;;;;27.15;17.73;;;;;;;13.55;40.48;99937.66;1749745;82;21472;-79
2021/03/16 11:08:37;;;;;;;33.02;19.92;;;;;;;12.97;41.77;99956.41;1749887;80;20963;-77
2021/03/16 11:11:06;;;;;;;45.78;20.23;;;;;;;12.42;42.79;99946.67;1749818;82;21467;-85
2021/03/16 11:13:34;;;;;;;43.25;20.82;;;;;;;11.74;44.67;99924.76;1749375;80;20959;-86
2021/03/16 11:16:05;;;;;;;37.63;19.40;;;;;;;11.74;44.67;99924.76;1737497;82;20956;-82
2021/03/16 11:18:33;;;;;;;43.73;20.43;;;;;;;11.68;44.91;99938.83;1736411;82;20944;-79
2021/03/16 11:21:02;;;;;;;31.17;18.60;;;;;;;11.68;44.67;99927.02;1736529;81;21365;-81
2021/03/16 11:23:30;;;;;;;39.48;22.27;;;;;;;11.75;44.95;99938.23;1736373;82;21812;-81
2021/03/16 11:25:58;;;;;;;34.83;21.73;;;;;;;11.81;44.52;99944.83;1736045;81;20968;-83
2021/03/16 11:28:28;;;;;;;31.02;20.05;;;;;;;11.88;44.73;99938.66;1736070;81;21659;-77
2021/03/16 11:30:56;;;;;;;33.55;21.00;;;;;;;12.00;44.77;99938.53;1736363;81;21468;-81
2021/03/16 11:33:25;;;;;;;34.88;20.25;;;;;;;12.21;44.19;99941.31;1735950;81;20932;-80
2021/03/16 11:36:14;;;;;;;30.27;20.05;;;;;;;12.46;43.87;99935.93;1735995;82;22327;-81
2021/03/16 11:39:00;;;;;;;34.27;19.70;;;;;;;12.68;43.55;99927.17;1735816;81;21026;-81
2021/03/16 11:41:47;;;;;;;36.08;21.33;;;;;;;12.86;43.40;99931.78;1736510;82;20908;-82
2021/03/16 11:44:34;;;;;;;33.92;20.08;;;;;;;12.95;42.71;99926.74;1735920;82;20944;-80
2021/03/16 11:47:20;;;;;;;27.02;19.00;;;;;;;12.92;43.03;99919.94;1735846;81;20967;-81
2021/03/16 11:50:08;;;;;;;31.73;17.32;;;;;;;12.85;43.11;99915.65;1735828;82;21370;-81
2021/03/16 11:52:54;;;;;;;25.72;17.80;;;;;;;12.66;43.73;99902.30;1735796;81;20968;-81
2021/03/16 11:55:41;;;;;;;31.87;18.27;;;;;;;12.66;43.73;99902.30;1736015;82;21437;-80
2021/03/16 11:58:28;;;;;;;26.75;14.83;;;;;;;12.65;43.68;99916.42;1735784;81;21066;-82
2021/03/16 12:01:14;;;;;;;35.92;16.05;;;;;;;12.59;43.37;99923.48;1735930;82;21007;-80
2021/03/16 12:04:00;;;;;;;32.98;15.85;;;;;;;12.41;43.57;99903.42;1735887;81;21644;-81
2021/03/16 12:06:47;;;;;;;31.97;14.98;;;;;;;12.36;43.60;99902.93;1736505;82;20943;-82
2021/03/16 12:09:33;;;;;;;22.27;13.45;;;;;;;12.36;43.60;99902.93;1737053;82;21330;-84
2021/03/16 12:12:20;;;;;;;33.92;15.03;;;;;;;12.14;44.12;99884.92;1736462;82;21007;-80
2021/03/16 12:15:11;;;;;;;29.37;13.98;;;;;;;11.94;44.63;99886.93;1746922;82;21003;-76
2021/03/16 12:17:58;;;;;;;27.10;13.90;;;;;;;11.59;45.27;99868.97;1751673;82;21467;-79
2021/03/16 12:20:50;;;;;;;33.53;17.20;;;;;;;11.59;45.27;99868.97;1750258;82;21715;-84
2021/03/16 12:23:36;;;;;;;34.05;16.30;;;;;;;11.40;45.50;99873.94;1749864;82;21483;-82
2021/03/16 12:26:22;;;;;;;26.75;15.10;;;;;;;11.20;45.89;99858.38;1749838;80;20951;-78
2021/03/16 12:29:09;;;;;;;29.37;15.05;;;;;;;11.05;46.43;99861.69;1750100;82;21444;-78
2021/03/16 12:31:57;;;;;;;28.87;14.65;;;;;;;10.90;47.09;99854.95;1749968;82;21504;-79
2021/03/16 12:34:46;;;;;;;22.32;15.05;;;;;;;10.79;47.13;99860.98;1749952;80;20962;-81
2021/03/16 12:37:32;;;;;;;32.38;14.38;;;;;;;10.55;47.90;99846.06;1749863;82;21014;-82